Current Conditions
Partly Cloudy
Conditions



Pressure
1034.92 (hPa) - 30.56 (inHG)
Visibility

10.0 (km) - 6.2 (miles)
Temperature
6  °C
Temperature
5  °C
Dewpoint
93  %
 Humidity
Wind Speed
10  km/h
5  kts
6  mph
2.7  m/s
Wind Direction
N
45°
E
90°
135°
S
180°
225°
W
270°
315°
 280°

Due West
Airport Data
EHAM
Amsterdam Airport Schiphol
Metar :EHAM 222355Z 28005KT 9999 FEW008 BKN027 06/05 Q1035 NOSIG
Sun 23rd January 00:55 am
Raw Metar Info
Raw METAR is the most common format in the world for the transmission of observational weather data. It is highly standardized through the International Civil Aviation Organization (ICAO), which allows it to be understood throughout most of the world.
API Info
Data Provided by
https://www.checkwx.com/weather/EHAM

Aviation Weather providing METAR, TAF, AIRMET, SIGMET and OUTLOOK Weather Reports
© Info
CSS/SVG/PHP scripts were developed by weather34 for use in the weather34 template © 2015-2022

Guide Info provided by Metar-Wikipedia